Time;durP1;ratioP1;P1;durP2;ratioP2;P2;SDS_P1;SDS_P2;PMS_P1;PMS_P2;Temp;Humidity;BMP_temperature;BMP_pressure;BME280_temperature;BME280_humidity;BME280_pressure;Samples;Min_cycle;Max_cycle;Signal;HPM_P1;HPM_P2
2023/03/08 00:00:41;;;;;;;49.17;21.57;;;;;;;6.44;72.12;96241.25;5088316;28;20185;-73
2023/03/08 00:03:13;;;;;;;49.97;22.27;;;;;;;6.24;73.78;96250.72;5069761;28;20195;-73
2023/03/08 00:05:41;;;;;;;34.17;17.03;;;;;;;6.13;73.88;96255.44;5059973;28;20212;-72
2023/03/08 00:08:09;;;;;;;32.73;16.30;;;;;;;6.03;75.13;96259.28;5050010;28;20192;-74
2023/03/08 00:10:36;;;;;;;26.30;15.30;;;;;;;5.94;75.39;96252.78;5067904;28;20206;-73
2023/03/08 00:13:03;;;;;;;30.60;17.13;;;;;;;6.03;75.43;96262.72;5037116;28;20202;-73
2023/03/08 00:15:30;;;;;;;45.60;23.17;;;;;;;6.22;74.50;96263.59;5087931;28;20204;-72
2023/03/08 00:17:56;;;;;;;46.77;25.73;;;;;;;6.26;73.45;96262.59;5070012;28;20200;-73
2023/03/08 00:20:23;;;;;;;24.57;14.47;;;;;;;6.26;74.70;96260.03;5069146;28;20590;-74
2023/03/08 00:22:54;;;;;;;13.83;10.80;;;;;;;5.90;75.04;96253.81;5062251;28;20236;-72
2023/03/08 00:25:38;;;;;;;17.30;10.80;;;;;;;5.81;75.37;96249.03;5018887;28;20687;-74
2023/03/08 00:28:05;;;;;;;14.97;11.27;;;;;;;5.64;75.63;96248.84;5067308;28;20198;-73
2023/03/08 00:30:32;;;;;;;14.20;8.90;;;;;;;5.53;76.63;96253.53;5033496;28;20268;-73
2023/03/08 00:33:36;;;;;;;12.93;8.40;;;;;;;5.51;77.84;96258.75;5048969;28;20201;-74
2023/03/08 00:36:23;;;;;;;12.03;8.60;;;;;;;5.59;77.79;96253.31;5067499;28;20209;-73
2023/03/08 01:08:22;;;;;;;16.60;10.83;;;;;;;6.34;72.96;96226.28;5068651;28;20555;-74
2023/03/08 01:13:40;;;;;;;15.87;10.70;;;;;;;6.44;72.21;96228.41;5069105;28;20206;-74
2023/03/08 01:19:03;;;;;;;18.93;12.53;;;;;;;6.42;72.60;96213.94;5086839;28;20656;-74
2023/03/08 01:24:16;;;;;;;18.63;12.00;;;;;;;6.43;72.31;96226.72;5086199;28;20187;-74
2023/03/08 01:26:43;;;;;;;16.57;11.03;;;;;;;6.41;71.86;96217.41;5086951;28;20184;-73
2023/03/08 01:31:57;;;;;;;12.57;9.60;;;;;;;6.26;72.69;96218.91;5068539;28;20187;-73
2023/03/08 01:42:43;;;;;;;10.90;7.73;;;;;;;5.66;74.10;96229.91;5086394;28;20257;-73
2023/03/08 01:48:42;;;;;;;12.43;7.40;;;;;;;5.24;76.14;96228.16;5068864;28;20190;-74
2023/03/08 01:51:21;;;;;;;11.97;8.27;;;;;;;5.11;77.06;96226.97;5030371;28;20202;-74
2023/03/08 01:53:48;;;;;;;11.83;8.70;;;;;;;4.86;77.95;96214.22;5046386;28;20187;-72
2023/03/08 01:56:17;;;;;;;13.90;8.70;;;;;;;4.87;79.20;96231.25;5046251;28;20282;-73
2023/03/08 01:58:47;;;;;;;13.20;8.43;;;;;;;4.81;78.98;96227.19;5046309;28;20188;-73
2023/03/08 02:01:14;;;;;;;13.37;8.03;;;;;;;4.78;78.82;96209.34;5028502;28;20218;-74
2023/03/08 02:03:44;;;;;;;14.33;9.03;;;;;;;4.96;78.69;96220.66;5028427;28;20189;-73
2023/03/08 02:06:13;;;;;;;30.70;16.67;;;;;;;4.87;79.14;96221.84;5012263;28;20192;-72
2023/03/08 02:08:42;;;;;;;30.40;16.47;;;;;;;4.97;78.64;96220.59;5028230;28;20198;-73
2023/03/08 02:11:12;;;;;;;16.20;10.47;;;;;;;5.01;79.27;96233.31;5045964;28;20195;-73
2023/03/08 02:13:40;;;;;;;32.03;16.57;;;;;;;4.94;79.39;96219.88;5042391;28;20205;-73
2023/03/08 02:16:13;;;;;;;24.17;13.43;;;;;;;4.99;78.84;96237.69;5035083;28;20193;-73
2023/03/08 02:18:59;;;;;;;19.47;9.67;;;;;;;4.80;79.02;96233.19;5068331;28;20569;-72
2023/03/08 02:21:27;;;;;;;11.67;7.53;;;;;;;4.62;79.96;96233.00;5067605;28;20253;-73
2023/03/08 02:24:05;;;;;;;12.20;7.83;;;;;;;4.42;80.16;96236.28;5086236;28;20686;-73
2023/03/08 02:26:36;;;;;;;10.80;7.53;;;;;;;4.18;80.62;96216.66;5068055;28;20271;-73
2023/03/08 02:29:05;;;;;;;16.47;9.27;;;;;;;4.23;80.62;96232.69;5085999;28;20196;-73
2023/03/08 02:31:36;;;;;;;11.33;7.70;;;;;;;4.18;81.10;96232.00;5086630;28;20726;-74
2023/03/08 02:43:34;;;;;;;50.07;18.77;;;;;;;4.31;80.56;96237.56;5072427;28;20255;-74
2023/03/08 02:46:37;;;;;;;33.80;17.70;;;;;;;4.44;80.62;96237.06;5069275;28;20196;-73
2023/03/08 02:53:03;;;;;;;14.50;9.73;;;;;;;4.72;79.40;96249.75;5069595;28;20287;-72
2023/03/08 02:59:12;;;;;;;17.73;12.27;;;;;;;4.67;80.05;96237.13;5050933;28;20197;-72
2023/03/08 03:04:32;;;;;;;11.27;8.07;;;;;;;4.72;79.88;96244.63;5067375;28;20189;-73
2023/03/08 03:07:18;;;;;;;9.90;7.40;;;;;;;4.79;79.80;96246.94;5068918;28;20283;-72
2023/03/08 03:13:08;;;;;;;12.43;8.33;;;;;;;4.90;79.33;96244.78;5050672;28;20564;-73
2023/03/08 03:15:39;;;;;;;11.13;7.27;;;;;;;5.03;78.96;96249.50;5050881;28;20193;-73
2023/03/08 03:24:53;;;;;;;13.77;8.10;;;;;;;5.38;76.82;96259.28;5068644;28;20178;-74
2023/03/08 03:30:45;;;;;;;13.50;9.13;;;;;;;5.56;75.97;96256.00;5067249;28;20218;-74
2023/03/08 03:33:15;;;;;;;15.67;9.00;;;;;;;5.56;75.72;96269.66;5050537;28;20199;-74
2023/03/08 03:35:43;;;;;;;12.40;8.87;;;;;;;5.48;75.96;96258.03;5068232;28;20187;-74
2023/03/08 03:38:14;;;;;;;13.33;10.43;;;;;;;5.53;75.33;96268.94;5033474;28;20260;-73
2023/03/08 03:40:43;;;;;;;17.27;10.87;;;;;;;5.46;75.08;96264.97;5034691;28;20591;-72
2023/03/08 03:43:11;;;;;;;19.83;10.97;;;;;;;5.18;75.86;96269.44;5033319;28;20239;-72
2023/03/08 03:45:38;;;;;;;15.83;9.63;;;;;;;5.03;76.10;96275.97;5050595;28;20197;-71
2023/03/08 03:48:06;;;;;;;12.60;8.70;;;;;;;4.85;76.88;96277.47;5066668;28;20278;-71
2023/03/08 03:50:33;;;;;;;13.73;9.50;;;;;;;4.67;77.80;96265.31;5050061;28;20185;-73
2023/03/08 03:53:06;;;;;;;12.73;9.17;;;;;;;4.84;77.96;96283.50;5050202;28;20190;-73
2023/03/08 03:55:34;;;;;;;11.00;7.97;;;;;;;5.06;76.86;96291.28;5062099;28;20910;-73
2023/03/08 03:58:02;;;;;;;20.13;9.03;;;;;;;4.66;77.67;96276.44;5070402;28;20204;-71
2023/03/08 04:00:30;;;;;;;10.43;7.47;;;;;;;4.46;78.38;96293.41;5069930;28;20260;-73
2023/03/08 04:03:09;;;;;;;12.07;7.87;;;;;;;4.16;79.57;96269.66;5069929;28;20220;-72
2023/03/08 04:05:38;;;;;;;10.97;7.70;;;;;;;4.03;80.67;96276.91;5087854;28;20780;-73
2023/03/08 04:08:07;;;;;;;14.70;9.03;;;;;;;4.06;80.47;96293.88;5069741;28;20303;-73
2023/03/08 04:10:37;;;;;;;12.07;7.50;;;;;;;4.05;81.11;96292.22;5069774;28;20189;-73
2023/03/08 04:13:04;;;;;;;11.07;7.23;;;;;;;3.96;81.90;96298.47;5087762;28;20182;-72
2023/03/08 04:15:31;;;;;;;11.10;7.27;;;;;;;3.97;81.31;96302.72;5088244;28;20197;-72
2023/03/08 04:18:01;;;;;;;12.10;7.83;;;;;;;3.78;81.61;96286.25;5069495;28;20574;-72
2023/03/08 04:20:31;;;;;;;9.27;6.43;;;;;;;3.80;82.27;96291.31;5052572;28;20643;-71
2023/03/08 04:22:59;;;;;;;9.20;6.70;;;;;;;3.76;82.21;96284.63;5052736;28;20600;-72
2023/03/08 04:25:35;;;;;;;15.07;7.10;;;;;;;3.68;82.46;96291.69;5069532;28;20183;-72
2023/03/08 04:28:04;;;;;;;10.47;6.27;;;;;;;3.62;82.21;96274.81;5069725;28;20207;-72
2023/03/08 04:30:32;;;;;;;10.40;6.63;;;;;;;3.77;82.59;96294.00;5068961;28;20663;-73
2023/03/08 04:33:01;;;;;;;10.00;6.47;;;;;;;3.79;82.37;96294.78;5069290;28;20193;-73
2023/03/08 04:35:36;;;;;;;9.37;5.60;;;;;;;3.66;83.12;96288.34;5069141;28;20184;-73
2023/03/08 04:38:04;;;;;;;10.83;6.67;;;;;;;3.74;82.79;96296.63;5069138;28;20176;-73
2023/03/08 04:40:31;;;;;;;8.10;5.67;;;;;;;3.77;82.48;96291.44;5069043;28;20184;-72
2023/03/08 04:43:03;;;;;;;10.43;6.77;;;;;;;3.83;82.48;96309.16;5069066;28;20212;-73
2023/03/08 04:45:36;;;;;;;11.73;6.40;;;;;;;3.76;82.64;96284.63;5052842;28;20195;-74
2023/03/08 04:48:09;;;;;;;11.47;6.87;;;;;;;3.74;82.37;96302.59;5053233;28;20184;-72
2023/03/08 04:50:38;;;;;;;11.63;7.90;;;;;;;3.67;82.65;96301.09;5069094;28;20220;-72
2023/03/08 04:53:07;;;;;;;15.07;8.60;;;;;;;3.65;82.61;96302.03;5068746;28;20219;-72
2023/03/08 04:55:37;;;;;;;11.67;7.77;;;;;;;3.69;82.58;96301.88;5086969;28;20718;-72
2023/03/08 04:58:05;;;;;;;11.43;7.30;;;;;;;3.85;82.14;96299.72;5068414;28;20197;-74
2023/03/08 05:00:32;;;;;;;10.23;7.53;;;;;;;3.99;81.86;96297.53;5085431;28;20664;-73
2023/03/08 05:03:00;;;;;;;13.50;8.50;;;;;;;4.11;81.02;96302.25;5069172;28;20248;-73
2023/03/08 05:05:27;;;;;;;12.90;8.33;;;;;;;4.21;80.64;96307.91;5085301;28;20246;-72
2023/03/08 05:07:58;;;;;;;15.33;10.37;;;;;;;4.18;80.41;96287.53;5068533;28;20200;-73
2023/03/08 05:10:25;;;;;;;14.23;10.13;;;;;;;4.19;80.48;96300.28;5068474;28;20188;-73
2023/03/08 05:12:52;;;;;;;15.00;11.00;;;;;;;4.38;79.90;96306.50;5051896;28;20668;-73
2023/03/08 05:15:22;;;;;;;13.53;10.67;;;;;;;4.20;79.64;96275.50;5068612;28;20206;-75
2023/03/08 05:17:52;;;;;;;16.20;11.20;;;;;;;4.42;80.55;96300.38;5086430;28;20185;-75
2023/03/08 05:20:20;;;;;;;15.33;10.13;;;;;;;4.41;79.67;96301.25;5065252;28;20723;-75
2023/03/08 05:22:49;;;;;;;14.40;9.93;;;;;;;4.40;79.18;96309.84;5064790;28;20248;-75
2023/03/08 05:25:32;;;;;;;15.33;9.80;;;;;;;4.72;78.91;96301.88;5048101;28;20631;-73
2023/03/08 05:28:00;;;;;;;15.27;10.00;;;;;;;4.82;77.94;96305.78;5064851;28;20210;-72
2023/03/08 05:30:31;;;;;;;17.17;10.57;;;;;;;4.93;76.95;96310.53;5066098;28;20299;-72
2023/03/08 05:32:58;;;;;;;19.90;9.30;;;;;;;4.98;75.76;96285.56;5031757;28;20925;-73
2023/03/08 05:35:25;;;;;;;17.93;10.53;;;;;;;4.88;75.68;96279.91;5047462;28;20653;-74
2023/03/08 05:37:54;;;;;;;18.60;10.10;;;;;;;5.16;75.24;96302.03;5066151;28;20256;-73
2023/03/08 05:40:21;;;;;;;17.93;10.57;;;;;;;5.34;75.20;96309.03;5064373;28;20198;-73
2023/03/08 05:42:50;;;;;;;16.67;10.17;;;;;;;5.20;75.33;96301.88;5065710;28;20226;-73
2023/03/08 05:45:17;;;;;;;20.57;10.60;;;;;;;5.26;74.22;96303.34;5047865;28;20286;-73
2023/03/08 05:47:45;;;;;;;19.30;11.10;;;;;;;5.21;74.78;96300.13;5064160;28;20190;-73
2023/03/08 05:50:12;;;;;;;19.30;12.50;;;;;;;5.12;75.38;96310.72;5063900;28;20638;-72
2023/03/08 05:52:41;;;;;;;18.20;11.43;;;;;;;5.16;75.36;96320.00;5065160;28;20293;-74
2023/03/08 05:55:13;;;;;;;19.33;11.83;;;;;;;5.17;75.04;96309.69;5064813;28;20562;-72
2023/03/08 05:57:41;;;;;;;14.40;9.53;;;;;;;5.24;76.19;96323.97;5047961;28;20299;-73
2023/03/08 06:00:09;;;;;;;20.43;9.60;;;;;;;5.38;75.68;96329.41;5064297;28;20839;-72
2023/03/08 06:02:42;;;;;;;19.57;9.17;;;;;;;5.61;74.77;96331.13;5048343;28;20372;-74
2023/03/08 06:05:10;;;;;;;17.10;9.87;;;;;;;5.75;74.17;96337.41;5064114;28;20203;-71
2023/03/08 06:07:38;;;;;;;19.63;10.20;;;;;;;5.86;74.77;96337.03;5047836;28;20198;-73
2023/03/08 06:10:10;;;;;;;18.60;10.27;;;;;;;6.06;73.89;96334.53;5047823;28;20202;-75
2023/03/08 06:12:38;;;;;;;17.20;10.17;;;;;;;6.02;73.83;96347.59;5068083;28;20287;-73
2023/03/08 06:15:09;;;;;;;16.37;10.20;;;;;;;6.18;74.00;96349.47;5067690;28;20195;-74
2023/03/08 06:17:40;;;;;;;22.83;11.57;;;;;;;6.16;73.63;96343.53;5051573;28;20222;-73
2023/03/08 06:20:09;;;;;;;16.90;10.33;;;;;;;6.38;73.47;96346.94;5067436;28;20256;-73
2023/03/08 06:22:39;;;;;;;17.13;9.97;;;;;;;6.54;72.71;96345.41;5067519;28;20219;-75
2023/03/08 06:25:07;;;;;;;14.47;10.17;;;;;;;6.50;73.74;96325.88;5067847;28;20188;-73
2023/03/08 06:27:35;;;;;;;18.70;11.57;;;;;;;6.81;72.87;96340.88;5067213;28;20226;-73
2023/03/08 06:30:09;;;;;;;12.90;9.43;;;;;;;7.02;72.09;96341.69;5067899;28;20278;-73
2023/03/08 06:32:38;;;;;;;19.83;11.07;;;;;;;7.10;71.73;96342.19;5067867;28;20608;-72
2023/03/08 06:35:07;;;;;;;15.97;10.10;;;;;;;7.30;71.73;96355.03;5051117;28;20549;-73
2023/03/08 06:37:39;;;;;;;17.10;8.80;;;;;;;7.20;72.46;96353.75;5067837;28;20230;-74
2023/03/08 06:40:08;;;;;;;14.60;8.77;;;;;;;7.27;72.34;96353.41;5067186;28;20185;-74
2023/03/08 06:42:35;;;;;;;14.63;9.30;;;;;;;7.44;72.00;96362.97;5067870;28;20249;-74
2023/03/08 06:45:10;;;;;;;14.17;9.73;;;;;;;7.66;72.15;96361.13;5051854;28;20269;-75
2023/03/08 06:47:38;;;;;;;15.30;9.33;;;;;;;7.72;71.73;96371.16;5067141;28;20202;-72
2023/03/08 06:50:07;;;;;;;16.67;8.97;;;;;;;7.96;70.63;96366.63;5066836;28;20280;-73
2023/03/08 06:52:37;;;;;;;14.10;8.43;;;;;;;8.04;71.24;96379.97;5066994;28;20185;-72
2023/03/08 06:55:09;;;;;;;11.03;8.40;;;;;;;8.12;69.32;96383.88;5067390;28;20735;-74
2023/03/08 06:57:43;;;;;;;14.63;8.53;;;;;;;8.36;69.26;96369.03;5050425;28;20583;-76
2023/03/08 07:00:14;;;;;;;12.63;8.13;;;;;;;8.44;68.63;96348.03;5050359;28;20197;-77
2023/03/08 07:02:44;;;;;;;10.37;7.80;;;;;;;8.53;67.70;96379.38;5049906;28;20240;-76
2023/03/08 07:05:11;;;;;;;13.17;7.80;;;;;;;8.76;67.49;96381.66;5067032;28;20200;-73
2023/03/08 07:07:38;;;;;;;11.53;8.10;;;;;;;9.04;67.06;96381.16;5068033;28;20243;-73
2023/03/08 07:10:06;;;;;;;12.50;7.87;;;;;;;9.30;65.94;96391.00;5068310;28;20193;-74
2023/03/08 07:12:35;;;;;;;13.03;7.73;;;;;;;9.48;65.80;96397.78;5067097;28;20262;-73
2023/03/08 07:15:02;;;;;;;12.13;8.27;;;;;;;9.82;64.38;96391.69;5066834;28;20189;-74
2023/03/08 07:17:31;;;;;;;11.40;6.77;;;;;;;9.80;63.50;96391.78;5066985;28;20244;-73
2023/03/08 07:20:00;;;;;;;11.07;6.60;;;;;;;9.95;63.42;96387.56;5072926;28;20683;-74
2023/03/08 07:22:29;;;;;;;9.60;6.27;;;;;;;9.98;63.06;96378.78;5087622;28;20259;-74
2023/03/08 07:24:56;;;;;;;9.93;6.23;;;;;;;10.19;62.79;96385.41;5070112;28;20590;-74
2023/03/08 07:27:24;;;;;;;22.27;11.97;;;;;;;10.35;62.42;96386.22;5053082;28;20189;-73
2023/03/08 07:29:52;;;;;;;12.33;6.53;;;;;;;10.27;62.32;96391.00;5069780;28;20205;-73
2023/03/08 07:32:22;;;;;;;7.03;5.23;;;;;;;10.28;62.18;96380.56;5068859;28;20198;-73
2023/03/08 07:34:49;;;;;;;15.27;7.50;;;;;;;10.53;62.05;96401.56;5069758;28;20207;-73
2023/03/08 07:37:20;;;;;;;13.80;6.70;;;;;;;10.32;61.94;96379.50;5069141;28;20204;-74
2023/03/08 07:39:47;;;;;;;12.13;6.47;;;;;;;10.40;62.29;96392.84;5053165;28;20227;-73
2023/03/08 07:42:15;;;;;;;15.00;6.07;;;;;;;10.73;61.28;96394.44;5087682;28;20224;-75
2023/03/08 07:44:45;;;;;;;6.83;5.30;;;;;;;10.83;61.37;96386.06;5069362;28;20619;-75
2023/03/08 07:47:12;;;;;;;10.33;5.73;;;;;;;10.84;61.50;96374.78;5087580;28;20204;-76
2023/03/08 07:49:40;;;;;;;11.50;5.90;;;;;;;11.01;62.06;96397.97;5068780;28;20309;-73
2023/03/08 07:52:07;;;;;;;8.13;5.67;;;;;;;10.98;62.23;96387.78;5069327;28;20256;-73
2023/03/08 07:54:38;;;;;;;7.20;5.40;;;;;;;11.23;62.05;96394.97;5068223;28;20221;-75
2023/03/08 07:57:05;;;;;;;9.07;4.93;;;;;;;11.32;60.27;96403.03;5068990;28;20196;-74
2023/03/08 07:59:33;;;;;;;5.93;4.30;;;;;;;11.45;60.50;96395.38;5069163;28;20245;-75
2023/03/08 08:02:00;;;;;;;8.87;4.87;;;;;;;11.48;60.19;96394.38;5069217;28;20216;-74
2023/03/08 08:04:27;;;;;;;7.27;5.50;;;;;;;11.58;60.28;96398.88;5087271;28;20216;-76
2023/03/08 08:06:55;;;;;;;9.07;4.90;;;;;;;11.78;59.22;96397.72;5068757;28;20275;-75
2023/03/08 08:09:23;;;;;;;6.00;4.10;;;;;;;11.88;58.38;96394.50;5035735;28;20229;-74
2023/03/08 08:11:51;;;;;;;7.37;4.73;;;;;;;12.01;58.51;96403.16;5086658;28;20185;-73
2023/03/08 08:14:18;;;;;;;7.93;5.00;;;;;;;12.15;58.16;96389.34;5068589;28;20366;-76
2023/03/08 08:16:47;;;;;;;9.53;5.40;;;;;;;11.95;58.76;96387.97;5086510;28;20193;-76
2023/03/08 08:19:16;;;;;;;10.40;6.07;;;;;;;12.05;58.76;96377.88;5068292;28;20625;-76
2023/03/08 08:21:43;;;;;;;9.33;5.67;;;;;;;12.25;57.90;96396.47;5086435;28;20221;-74
2023/03/08 08:24:10;;;;;;;9.27;6.00;;;;;;;12.43;57.59;96391.88;5068167;28;20314;-72
2023/03/08 08:26:38;;;;;;;16.33;6.93;;;;;;;12.64;56.89;96382.72;5086799;28;20195;-74
2023/03/08 08:29:07;;;;;;;15.33;7.87;;;;;;;12.72;56.35;96380.47;5067685;28;20221;-75
2023/03/08 08:31:47;;;;;;;10.37;5.83;;;;;;;13.05;56.14;96383.50;5068252;28;20229;-73
2023/03/08 08:34:16;;;;;;;15.00;6.70;;;;;;;13.06;55.31;96386.94;5067307;28;20720;-73
2023/03/08 08:36:43;;;;;;;13.13;8.00;;;;;;;13.00;54.89;96369.09;5067720;28;20253;-73
2023/03/08 08:39:10;;;;;;;11.07;6.13;;;;;;;13.25;53.84;96381.34;5067965;28;20191;-73
2023/03/08 08:41:38;;;;;;;9.57;6.03;;;;;;;13.48;53.32;96384.06;5067498;28;20292;-74
2023/03/08 08:44:06;;;;;;;11.17;6.23;;;;;;;13.43;53.10;96378.34;5068312;28;20238;-76
2023/03/08 08:46:37;;;;;;;7.97;5.23;;;;;;;13.37;51.64;96372.72;5067484;28;20226;-73
2023/03/08 08:49:04;;;;;;;9.93;6.10;;;;;;;13.52;51.45;96388.13;5086051;28;20193;-74
2023/03/08 08:51:31;;;;;;;10.93;6.10;;;;;;;13.60;52.17;96385.81;5067537;28;20190;-73
2023/03/08 08:53:59;;;;;;;7.33;5.00;;;;;;;13.59;51.10;96380.72;5085381;28;20282;-73
2023/03/08 08:56:27;;;;;;;11.77;6.23;;;;;;;13.69;50.31;96385.19;5085774;28;20609;-75
2023/03/08 08:59:02;;;;;;;10.57;5.63;;;;;;;14.00;50.10;96378.72;5067829;28;20191;-74
2023/03/08 09:01:31;;;;;;;6.43;4.33;;;;;;;13.86;48.34;96371.03;5086586;28;20303;-73
2023/03/08 09:03:59;;;;;;;4.87;3.83;;;;;;;13.92;47.92;96375.81;5085821;28;20226;-74
2023/03/08 09:06:28;;;;;;;7.50;5.07;;;;;;;13.85;49.60;96385.81;5086210;28;20215;-74
2023/03/08 09:08:59;;;;;;;7.93;5.60;;;;;;;14.15;49.54;96382.00;5067410;28;20222;-74
2023/03/08 09:11:26;;;;;;;10.50;5.37;;;;;;;14.32;48.82;96374.69;5085627;28;20223;-75
2023/03/08 09:13:54;;;;;;;11.20;5.43;;;;;;;14.29;49.01;96361.91;5085724;28;20319;-74
2023/03/08 09:16:24;;;;;;;7.90;4.73;;;;;;;14.38;48.41;96379.50;5085433;28;20238;-74
2023/03/08 09:18:53;;;;;;;14.83;6.10;;;;;;;14.57;48.83;96374.59;5086177;28;20184;-74
2023/03/08 09:21:20;;;;;;;6.90;4.40;;;;;;;14.73;47.94;96376.13;5084757;28;20248;-74
2023/03/08 09:23:47;;;;;;;6.10;4.20;;;;;;;14.61;46.47;96362.22;5067254;28;20208;-73
2023/03/08 09:26:14;;;;;;;4.77;3.87;;;;;;;14.63;46.44;96361.13;5067325;28;20963;-75
2023/03/08 09:28:41;;;;;;;5.70;4.80;;;;;;;14.75;47.28;96376.84;5084907;28;20233;-74
2023/03/08 09:31:13;;;;;;;6.30;4.00;;;;;;;14.65;46.52;96367.06;5050642;28;20199;-74
2023/03/08 09:33:43;;;;;;;7.40;4.13;;;;;;;14.82;46.36;96354.59;5085203;28;20676;-74
2023/03/08 09:36:11;;;;;;;7.33;4.27;;;;;;;14.94;46.56;96356.31;5067137;28;20200;-73
2023/03/08 09:38:38;;;;;;;6.83;3.87;;;;;;;15.17;45.89;96352.78;5066667;28;20199;-75
2023/03/08 09:41:18;;;;;;;11.50;5.93;;;;;;;14.98;46.54;96355.13;5066830;28;20666;-73
2023/03/08 09:43:53;;;;;;;7.53;4.87;;;;;;;15.05;46.04;96379.78;5067520;28;20227;-74
2023/03/08 09:46:28;;;;;;;5.43;4.00;;;;;;;15.31;45.44;96357.84;5070977;28;20687;-74
2023/03/08 09:48:59;;;;;;;5.03;4.33;;;;;;;15.32;45.01;96356.88;5071235;28;20699;-74
2023/03/08 09:51:35;;;;;;;5.33;4.43;;;;;;;15.45;44.41;96350.66;5089110;28;20577;-75
2023/03/08 09:54:07;;;;;;;6.87;4.43;;;;;;;15.55;44.49;96342.94;5070661;28;20200;-75
2023/03/08 09:56:47;;;;;;;5.60;3.80;;;;;;;15.59;44.27;96339.16;5088659;28;20200;-75
2023/03/08 09:59:32;;;;;;;6.87;3.80;;;;;;;15.74;44.20;96340.59;5054296;28;20229;-75
2023/03/08 10:02:13;;;;;;;6.27;3.90;;;;;;;15.65;43.80;96335.22;5070914;28;20506;-72
2023/03/08 10:05:08;;;;;;;11.80;6.27;;;;;;;15.84;43.53;96336.31;5088832;28;20248;-74
2023/03/08 10:08:10;;;;;;;9.73;5.30;;;;;;;15.97;42.88;96329.16;5088196;28;20268;-74
2023/03/08 10:11:00;;;;;;;8.10;4.10;;;;;;;16.03;42.65;96326.06;5088902;28;20348;-75
2023/03/08 10:13:52;;;;;;;6.13;3.53;;;;;;;16.15;42.78;96330.34;5088227;28;20219;-73
2023/03/08 10:16:27;;;;;;;8.33;5.07;;;;;;;16.08;42.95;96331.78;5087451;28;20671;-74
2023/03/08 10:19:03;;;;;;;8.53;4.83;;;;;;;15.85;42.65;96321.47;5070405;28;20277;-75
2023/03/08 10:21:32;;;;;;;5.50;3.37;;;;;;;16.00;42.34;96323.72;5088316;28;20691;-74
2023/03/08 10:24:06;;;;;;;6.80;3.53;;;;;;;16.45;41.37;96321.00;5089616;28;20702;-73
2023/03/08 10:26:33;;;;;;;4.30;2.90;;;;;;;16.58;39.82;96319.09;5070014;28;20212;-73
2023/03/08 10:29:00;;;;;;;5.83;3.30;;;;;;;16.70;37.70;96328.56;5070476;28;20188;-73
2023/03/08 10:31:32;;;;;;;7.80;2.57;;;;;;;16.79;37.22;96312.97;5070817;28;20189;-74
2023/03/08 10:34:14;;;;;;;6.33;2.80;;;;;;;17.04;36.92;96328.28;5088217;28;20185;-75
2023/03/08 10:36:52;;;;;;;11.60;2.73;;;;;;;17.10;36.85;96311.25;5088698;28;20690;-74
2023/03/08 10:39:20;;;;;;;5.83;2.63;;;;;;;17.02;37.05;96303.22;5088543;28;20253;-74
2023/03/08 10:41:59;;;;;;;4.13;2.60;;;;;;;17.05;37.68;96313.41;5088542;28;20340;-74
2023/03/08 10:44:43;;;;;;;2.83;2.50;;;;;;;17.10;37.55;96295.56;5069814;28;20319;-74
2023/03/08 10:47:21;;;;;;;7.77;2.93;;;;;;;17.26;38.25;96311.63;5052999;28;20279;-74
2023/03/08 10:49:50;;;;;;;3.07;2.50;;;;;;;16.93;38.19;96288.28;5070322;28;20689;-74
2023/03/08 10:52:25;;;;;;;8.00;3.10;;;;;;;17.13;38.10;96299.69;5053328;28;20207;-73
2023/03/08 10:55:20;;;;;;;3.40;2.87;;;;;;;17.19;37.94;96299.22;5053030;28;20208;-73
2023/03/08 10:57:55;;;;;;;7.00;3.07;;;;;;;17.36;37.94;96295.97;5067475;28;20205;-74
2023/03/08 11:00:34;;;;;;;8.43;3.73;;;;;;;17.42;36.58;96295.47;5087973;28;20184;-74
2023/03/08 11:03:10;;;;;;;9.30;3.70;;;;;;;17.42;34.90;96298.91;5069968;28;20623;-75
2023/03/08 11:05:37;;;;;;;4.90;2.37;;;;;;;17.41;33.49;96293.81;5069377;28;20296;-73
2023/03/08 11:08:16;;;;;;;6.57;2.40;;;;;;;17.47;33.01;96277.59;5087987;28;20191;-73
2023/03/08 11:10:43;;;;;;;5.27;2.80;;;;;;;17.22;33.92;96278.00;5070030;28;20190;-73
2023/03/08 11:13:24;;;;;;;2.80;2.10;;;;;;;17.52;33.40;96278.88;5069721;28;20240;-74
2023/03/08 11:16:08;;;;;;;6.23;2.80;;;;;;;17.65;33.19;96274.25;5053399;28;20229;-73
2023/03/08 11:18:43;;;;;;;7.33;2.73;;;;;;;18.03;32.27;96276.19;5067845;28;20207;-75
2023/03/08 11:21:39;;;;;;;3.47;2.40;;;;;;;18.01;33.01;96259.75;5087556;28;20290;-75
2023/03/08 11:24:31;;;;;;;7.57;2.70;;;;;;;18.00;32.53;96259.88;5069718;28;20298;-74
2023/03/08 11:27:36;;;;;;;4.33;2.53;;;;;;;18.18;32.54;96264.34;5087748;28;20190;-74
2023/03/08 11:30:29;;;;;;;8.27;2.10;;;;;;;18.40;31.58;96264.09;5058509;28;20204;-75
2023/03/08 11:33:32;;;;;;;8.40;4.27;;;;;;;18.45;30.38;96259.31;5086484;28;20700;-75
2023/03/08 11:36:19;;;;;;;6.67;2.80;;;;;;;18.39;33.07;96257.19;5042722;28;20304;-74
2023/03/08 11:38:56;;;;;;;4.63;2.23;;;;;;;18.19;34.63;96249.44;5068423;28;20207;-74
2023/03/08 11:41:49;;;;;;;5.03;2.60;;;;;;;18.07;34.71;96251.38;5068910;28;20285;-75
2023/03/08 11:44:41;;;;;;;4.30;1.90;;;;;;;18.03;33.28;96249.16;5086728;28;20220;-76
2023/03/08 11:47:28;;;;;;;5.33;2.37;;;;;;;17.75;34.61;96225.34;5087562;28;20283;-75
2023/03/08 11:50:04;;;;;;;7.70;3.10;;;;;;;17.80;35.49;96236.25;5068986;28;20213;-76
2023/03/08 11:52:38;;;;;;;4.23;2.03;;;;;;;17.40;36.31;96238.00;5068796;28;20708;-73
2023/03/08 11:55:36;;;;;;;6.20;2.70;;;;;;;17.57;35.41;96237.44;5069094;28;20307;-74
2023/03/08 11:58:32;;;;;;;4.00;2.50;;;;;;;17.82;34.51;96223.88;5068552;28;20191;-73
2023/03/08 12:01:03;;;;;;;3.37;2.70;;;;;;;17.64;36.16;96222.03;5079716;28;20207;-74
2023/03/08 12:03:39;;;;;;;4.87;2.90;;;;;;;17.55;36.74;96218.41;5068980;28;20247;-73
2023/03/08 12:06:29;;;;;;;5.30;2.50;;;;;;;17.68;34.86;96198.03;5066358;28;20569;-74
2023/03/08 12:09:12;;;;;;;5.03;2.10;;;;;;;18.10;34.08;96209.16;5086529;28;20187;-74
2023/03/08 12:12:23;;;;;;;11.07;3.70;;;;;;;18.31;32.35;96214.28;5086445;28;20264;-75
2023/03/08 12:14:51;;;;;;;3.47;2.50;;;;;;;18.41;30.95;96218.56;5022462;28;20190;-74
2023/03/08 12:17:24;;;;;;;5.60;2.70;;;;;;;18.27;30.70;96213.72;5086592;28;20573;-77
2023/03/08 12:19:52;;;;;;;3.17;1.83;;;;;;;18.18;30.16;96205.84;5064578;28;20230;-74
2023/03/08 12:22:46;;;;;;;3.57;1.90;;;;;;;18.25;29.95;96209.59;5066488;28;20188;-74
2023/03/08 12:25:29;;;;;;;2.37;1.80;;;;;;;18.39;29.36;96214.41;5065013;28;20715;-75
2023/03/08 12:28:19;;;;;;;4.20;1.93;;;;;;;18.46;29.73;96212.94;5066298;28;20242;-75
2023/03/08 12:30:55;;;;;;;4.20;2.10;;;;;;;18.61;29.85;96208.91;5066410;28;20275;-74
2023/03/08 12:33:25;;;;;;;13.10;3.13;;;;;;;18.49;30.26;96204.78;5065257;28;20644;-75
2023/03/08 12:35:56;;;;;;;2.03;1.80;;;;;;;18.51;29.88;96208.94;5064595;28;20289;-75
2023/03/08 12:38:37;;;;;;;3.80;2.33;;;;;;;18.41;29.72;96197.59;5066252;28;20191;-73
2023/03/08 12:41:21;;;;;;;7.80;2.60;;;;;;;18.56;30.05;96206.72;5064765;28;20284;-73
2023/03/08 12:44:01;;;;;;;9.13;2.07;;;;;;;18.44;29.68;96191.28;5064363;28;20263;-74
2023/03/08 12:46:42;;;;;;;6.73;2.40;;;;;;;18.73;29.80;96210.44;5066178;28;20564;-74
2023/03/08 12:49:40;;;;;;;6.93;1.97;;;;;;;18.53;30.23;96195.66;5064599;28;20219;-73
2023/03/08 12:52:18;;;;;;;2.83;2.20;;;;;;;18.59;29.68;96211.69;5064272;28;20199;-75
2023/03/08 12:55:25;;;;;;;2.60;1.77;;;;;;;18.46;29.14;96207.69;5064199;28;20195;-74
2023/03/08 12:57:54;;;;;;;6.03;2.03;;;;;;;18.56;29.45;96201.47;5064113;28;20210;-75
2023/03/08 13:00:56;;;;;;;2.80;2.50;;;;;;;18.24;30.10;96203.50;5047654;28;20299;-74
2023/03/08 13:03:36;;;;;;;3.97;2.17;;;;;;;18.21;30.16;96206.41;5064607;28;20195;-75
2023/03/08 13:06:21;;;;;;;6.13;4.00;;;;;;;18.16;30.18;96199.91;5065462;28;20310;-75
2023/03/08 13:08:54;;;;;;;6.50;4.00;;;;;;;18.27;30.51;96197.16;5065542;28;20676;-74
2023/03/08 13:11:24;;;;;;;4.80;2.83;;;;;;;18.36;30.19;96206.84;5064158;28;20664;-76
2023/03/08 13:14:00;;;;;;;4.57;3.33;;;;;;;18.22;29.90;96201.97;5064187;28;20212;-74
2023/03/08 13:16:37;;;;;;;1.70;1.50;;;;;;;18.13;29.63;96198.41;5063875;28;20215;-74
2023/03/08 13:19:13;;;;;;;2.40;1.80;;;;;;;18.07;29.98;96205.97;5063487;28;20639;-74
2023/03/08 13:22:02;;;;;;;4.60;2.60;;;;;;;18.03;29.98;96188.88;5085164;28;20662;-75
2023/03/08 13:24:49;;;;;;;2.00;1.50;;;;;;;18.11;30.19;96191.66;5084382;28;20295;-75